Time;durP1;ratioP1;P1;durP2;ratioP2;P2;SDS_P1;SDS_P2;PMS_P1;PMS_P2;Temp;Humidity;BMP_temperature;BMP_pressure;BME280_temperature;BME280_humidity;BME280_pressure;Samples;Min_cycle;Max_cycle;Signal;HPM_P1;HPM_P2
2021/12/05 00:22:30;;;;;;;22.73;10.38;;;4.40;99.90;;;;;;5117640;28;20104;-65
2021/12/05 00:24:59;;;;;;;21.58;9.10;;;4.50;99.90;;;;;;5127046;28;20061;-65
2021/12/05 00:27:33;;;;;;;18.48;9.43;;;4.50;99.90;;;;;;5127333;28;20047;-65
2021/12/05 00:32:53;;;;;;;18.67;9.95;;;4.50;99.90;;;;;;5148736;27;20047;-65
2021/12/05 00:40:59;;;;;;;16.00;8.70;;;4.50;99.90;;;;;;5131158;27;20127;-65
2021/12/05 00:46:46;;;;;;;14.85;8.68;;;4.30;99.90;;;;;;5131474;27;20107;-65
2021/12/05 00:49:50;;;;;;;21.05;9.10;;;4.30;99.90;;;;;;5131126;27;20062;-65
2021/12/05 00:55:22;;;;;;;16.75;8.15;;;4.10;99.90;;;;;;5139883;27;20047;-65
2021/12/05 01:00:42;;;;;;;13.82;7.57;;;4.00;99.90;;;;;;5130336;27;20051;-65
2021/12/05 01:16:07;;;;;;;12.18;8.43;;;4.20;99.90;;;;;;5130444;27;20050;-65
2021/12/05 01:18:34;;;;;;;18.80;8.55;;;4.30;99.90;;;;;;5130146;27;20068;-65
2021/12/05 01:21:06;;;;;;;17.52;7.57;;;4.20;99.90;;;;;;5142794;27;20031;-65
2021/12/05 01:26:12;;;;;;;15.18;7.53;;;4.20;99.90;;;;;;5135741;27;20061;-65
2021/12/05 01:31:49;;;;;;;16.63;7.53;;;4.10;99.90;;;;;;5122546;27;20048;-65
2021/12/05 01:34:28;;;;;;;12.60;6.38;;;4.20;99.90;;;;;;5148640;27;20047;-65
2021/12/05 01:39:52;;;;;;;16.27;7.90;;;4.30;99.90;;;;;;5129740;27;20052;-65
2021/12/05 02:09:09;;;;;;;12.27;6.53;;;4.50;99.90;;;;;;5128973;27;20103;-65
2021/12/05 02:41:25;;;;;;;15.75;8.63;;;4.60;99.90;;;;;;5146822;27;20636;-65
2021/12/05 02:47:01;;;;;;;15.40;8.98;;;4.50;99.90;;;;;;5126671;27;20058;-66
2021/12/05 02:49:30;;;;;;;17.55;9.50;;;4.50;99.90;;;;;;5119650;27;20043;-66
2021/12/05 02:52:00;;;;;;;17.67;9.15;;;4.40;99.90;;;;;;5128951;27;20047;-65
2021/12/05 02:54:27;;;;;;;;;;;4.40;99.90;;;;;;5131841;27;20200;-66
2021/12/05 02:56:54;;;;;;;16.77;10.43;;;4.50;99.90;;;;;;5107361;27;19919;-65
2021/12/05 02:59:39;;;;;;;24.80;10.70;;;4.40;99.90;;;;;;5127829;27;20047;-65
2021/12/05 03:02:11;;;;;;;20.65;10.10;;;4.50;99.90;;;;;;5136230;27;20093;-65
2021/12/05 03:04:41;;;;;;;24.45;11.23;;;4.50;99.90;;;;;;5127991;27;20043;-65
2021/12/05 03:07:09;;;;;;;22.37;12.13;;;4.40;99.90;;;;;;5128119;27;20043;-66
2021/12/05 03:09:37;;;;;;;20.95;11.45;;;4.40;99.90;;;;;;5119882;27;20051;-66
2021/12/05 03:12:05;;;;;;;21.23;11.73;;;4.40;99.90;;;;;;5146542;27;20560;-65
2021/12/05 03:14:31;;;;;;;25.40;12.25;;;4.40;99.90;;;;;;5127941;27;20039;-65
2021/12/05 03:16:57;;;;;;;23.25;13.18;;;4.50;99.90;;;;;;5128111;27;20066;-65
2021/12/05 03:19:24;;;;;;;23.08;12.43;;;4.40;99.90;;;;;;5146172;27;20038;-65
2021/12/05 03:21:51;;;;;;;26.73;13.77;;;4.40;99.90;;;;;;5133398;27;20036;-65
2021/12/05 03:24:19;;;;;;;24.27;12.02;;;4.40;99.90;;;;;;5128871;27;20042;-65
2021/12/05 03:26:47;;;;;;;25.33;13.75;;;4.60;99.90;;;;;;5146902;27;20031;-66
2021/12/05 03:29:14;;;;;;;29.42;14.98;;;4.50;99.90;;;;;;5147107;27;20046;-65
2021/12/05 03:31:41;;;;;;;27.33;15.70;;;4.50;99.90;;;;;;5128454;27;20039;-65
2021/12/05 03:34:09;;;;;;;34.25;16.20;;;4.40;99.90;;;;;;5128090;28;20109;-65
2021/12/05 03:36:37;;;;;;;23.33;13.63;;;4.40;99.90;;;;;;5102542;27;20050;-65
2021/12/05 03:39:05;;;;;;;25.45;15.20;;;4.50;99.90;;;;;;5127190;27;20043;-65
2021/12/05 03:41:31;;;;;;;23.92;14.02;;;4.50;99.90;;;;;;5146075;27;20068;-65
2021/12/05 03:43:57;;;;;;;23.13;14.00;;;4.50;99.90;;;;;;5146312;27;20039;-66
2021/12/05 03:46:27;;;;;;;27.23;13.90;;;4.50;99.90;;;;;;5146188;27;20043;-65
2021/12/05 03:48:57;;;;;;;30.23;13.85;;;4.60;99.90;;;;;;5146322;27;20042;-65
2021/12/05 03:51:25;;;;;;;25.27;14.02;;;4.50;99.90;;;;;;5127256;27;20127;-65
2021/12/05 03:53:52;;;;;;;24.25;14.13;;;4.50;99.90;;;;;;5133169;28;20039;-65
2021/12/05 03:56:19;;;;;;;28.02;13.98;;;4.50;99.90;;;;;;5128321;28;20043;-65
2021/12/05 03:58:46;;;;;;;30.02;14.20;;;4.40;99.90;;;;;;5128351;28;20047;-65
2021/12/05 04:01:12;;;;;;;26.80;13.18;;;4.40;99.90;;;;;;5145516;28;20050;-65
2021/12/05 04:03:39;;;;;;;24.85;13.32;;;4.40;99.90;;;;;;5146073;28;20487;-66
2021/12/05 04:06:08;;;;;;;21.63;12.27;;;4.50;99.90;;;;;;5127350;28;20062;-65
2021/12/05 04:08:34;;;;;;;23.15;13.50;;;4.50;99.90;;;;;;5150957;27;20451;-66
2021/12/05 04:11:07;;;;;;;22.35;11.93;;;4.50;99.90;;;;;;5150480;27;20110;-65
2021/12/05 04:13:33;;;;;;;26.90;12.77;;;4.40;99.90;;;;;;5141900;27;20058;-65
2021/12/05 04:16:02;;;;;;;22.17;12.23;;;4.30;99.90;;;;;;5131498;27;20074;-65
2021/12/05 04:18:28;;;;;;;24.52;11.70;;;4.30;99.90;;;;;;5131502;27;20538;-65
2021/12/05 04:20:54;;;;;;;24.20;12.20;;;4.30;99.90;;;;;;5124758;28;20084;-65
2021/12/05 04:23:20;;;;;;;25.70;11.48;;;4.30;99.90;;;;;;5147997;27;20039;-65
2021/12/05 04:25:50;;;;;;;20.25;10.95;;;4.30;99.90;;;;;;5124849;28;20071;-67
2021/12/05 04:28:17;;;;;;;23.77;11.63;;;4.20;99.90;;;;;;5147333;27;20058;-65
2021/12/05 04:30:42;;;;;;;22.15;11.07;;;4.30;99.90;;;;;;5131281;27;20070;-66
2021/12/05 04:33:08;;;;;;;24.35;11.70;;;4.30;99.90;;;;;;5131584;27;20065;-65
2021/12/05 04:35:34;;;;;;;21.85;11.50;;;4.30;99.90;;;;;;5146756;27;20051;-65
2021/12/05 04:38:00;;;;;;;25.90;11.52;;;4.20;99.90;;;;;;5142886;27;20047;-66
2021/12/05 04:40:26;;;;;;;18.92;11.00;;;4.30;99.90;;;;;;5148989;27;20069;-65
2021/12/05 04:42:52;;;;;;;17.80;9.93;;;4.30;99.90;;;;;;5130863;27;20487;-65
2021/12/05 04:45:25;;;;;;;20.55;10.23;;;4.20;99.90;;;;;;5149172;27;20043;-65
2021/12/05 04:47:51;;;;;;;18.77;9.90;;;4.20;99.90;;;;;;5130869;27;20051;-65
2021/12/05 04:50:18;;;;;;;17.10;10.18;;;4.20;99.90;;;;;;5148918;27;20047;-65
2021/12/05 04:52:44;;;;;;;19.40;9.60;;;4.30;99.90;;;;;;5130876;27;20098;-65
2021/12/05 04:55:11;;;;;;;13.63;8.32;;;4.20;99.90;;;;;;5138525;27;20495;-66
2021/12/05 04:57:38;;;;;;;22.58;10.38;;;4.20;99.90;;;;;;5149284;27;20406;-65
2021/12/05 05:00:12;;;;;;;23.10;9.85;;;4.20;99.90;;;;;;5124514;27;20043;-65
2021/12/05 05:02:38;;;;;;;21.67;9.77;;;4.20;99.90;;;;;;5136273;27;20043;-65
2021/12/05 05:05:05;;;;;;;21.42;8.60;;;4.10;99.90;;;;;;5130056;27;20054;-66
2021/12/05 05:07:30;;;;;;;19.58;8.85;;;4.20;99.90;;;;;;5149331;27;20051;-66
2021/12/05 05:10:00;;;;;;;13.88;8.00;;;4.20;99.90;;;;;;5149410;27;20060;-66
2021/12/05 05:12:26;;;;;;;17.73;8.93;;;4.10;99.90;;;;;;5130189;27;20043;-65
2021/12/05 05:14:53;;;;;;;16.77;8.10;;;4.00;99.90;;;;;;5130302;27;20051;-65
2021/12/05 05:17:19;;;;;;;19.80;8.40;;;4.00;99.90;;;;;;5122502;27;20040;-65
2021/12/05 05:19:50;;;;;;;17.63;8.43;;;4.10;99.90;;;;;;5148972;27;20055;-65
2021/12/05 05:22:33;;;;;;;20.17;7.63;;;4.00;99.90;;;;;;5123849;27;20054;-65
2021/12/05 05:43:54;;;;;;;17.17;6.78;;;4.00;99.90;;;;;;5129918;27;20116;-65
2021/12/05 05:46:25;;;;;;;16.67;7.15;;;4.20;99.90;;;;;;5129663;27;20054;-65
2021/12/05 05:49:13;;;;;;;20.38;7.68;;;4.00;99.90;;;;;;5148220;27;20518;-66
2021/12/05 05:51:37;;;;;;;13.40;6.43;;;4.00;99.90;;;;;;5129198;27;20140;-65
2021/12/05 05:54:03;;;;;;;18.73;7.32;;;4.00;99.90;;;;;;5136498;27;20047;-66
2021/12/05 05:56:31;;;;;;;21.10;7.03;;;4.00;99.90;;;;;;5140991;27;20042;-65
2021/12/05 05:59:04;;;;;;;16.08;7.63;;;3.90;99.90;;;;;;5130336;27;20057;-65
2021/12/05 06:04:05;;;;;;;19.35;7.13;;;4.10;99.90;;;;;;5147716;27;20039;-65
2021/12/05 06:06:32;;;;;;;22.33;7.68;;;4.10;99.90;;;;;;5129530;27;20050;-65
2021/12/05 06:08:59;;;;;;;16.65;7.40;;;3.90;99.90;;;;;;5129607;27;20062;-65
2021/12/05 06:11:26;;;;;;;15.55;6.63;;;3.90;99.90;;;;;;5104852;27;20043;-65
2021/12/05 06:13:52;;;;;;;19.77;8.50;;;4.00;99.90;;;;;;5109717;27;20039;-65
2021/12/05 06:16:18;;;;;;;18.45;6.70;;;3.90;99.90;;;;;;5113278;27;20064;-65
2021/12/05 06:18:46;;;;;;;18.08;7.30;;;4.00;99.90;;;;;;5130245;27;20043;-65
2021/12/05 06:21:13;;;;;;;15.50;7.15;;;4.00;99.90;;;;;;5140270;27;20047;-65
2021/12/05 06:23:40;;;;;;;17.45;7.75;;;3.90;99.90;;;;;;5144521;27;20035;-65
2021/12/05 06:26:08;;;;;;;18.23;7.05;;;3.90;99.90;;;;;;5129159;27;20038;-65
2021/12/05 06:28:41;;;;;;;18.23;7.15;;;3.90;99.90;;;;;;5126288;28;20047;-65
2021/12/05 06:47:20;;;;;;;17.70;7.65;;;4.20;99.90;;;;;;5129290;27;20072;-65
2021/12/05 06:49:46;;;;;;;17.75;8.05;;;4.30;99.90;;;;;;5129357;27;20118;-65
2021/12/05 06:52:11;;;;;;;21.27;7.88;;;4.30;99.90;;;;;;5147445;27;20440;-65
2021/12/05 06:54:39;;;;;;;17.67;7.72;;;4.10;99.90;;;;;;5146990;27;20043;-65
2021/12/05 06:57:07;;;;;;;19.20;7.65;;;4.00;99.90;;;;;;5128999;27;20050;-65
2021/12/05 06:59:33;;;;;;;19.00;8.00;;;4.10;99.90;;;;;;5128176;27;20039;-65
2021/12/05 07:02:00;;;;;;;13.07;7.78;;;4.10;99.90;;;;;;5128055;27;20126;-65
2021/12/05 07:07:18;;;;;;;20.17;8.63;;;4.10;99.90;;;;;;5146680;27;20126;-65
2021/12/05 07:09:44;;;;;;;20.60;8.98;;;4.00;99.90;;;;;;5126203;28;20043;-65
2021/12/05 07:25:24;;;;;;;26.00;9.50;;;4.00;99.90;;;;;;5124377;27;20069;-65
2021/12/05 07:43:58;;;;;;;19.08;9.05;;;4.40;99.90;;;;;;5124120;27;20051;-65
2021/12/05 07:46:24;;;;;;;25.10;10.35;;;4.40;99.90;;;;;;5135508;28;20506;-65
2021/12/05 07:48:49;;;;;;;22.08;9.23;;;4.30;99.90;;;;;;5127011;27;20051;-65
2021/12/05 07:54:18;;;;;;;19.48;9.27;;;4.30;99.90;;;;;;5126540;27;20047;-65
2021/12/05 07:56:45;;;;;;;20.08;10.52;;;4.20;99.90;;;;;;5145789;28;20588;-66
2021/12/05 07:59:28;;;;;;;21.83;10.63;;;4.20;99.90;;;;;;5127173;28;20130;-65
2021/12/05 08:15:44;;;;;;;20.73;10.30;;;4.10;99.90;;;;;;5093965;28;20564;-65
2021/12/05 08:18:10;;;;;;;20.88;10.55;;;4.10;99.90;;;;;;5118921;28;20090;-65
2021/12/05 08:20:39;;;;;;;17.67;9.95;;;4.20;99.90;;;;;;5120627;28;20047;-67
2021/12/05 08:23:06;;;;;;;19.15;10.48;;;4.20;99.90;;;;;;5115863;28;20062;-70
2021/12/05 08:25:35;;;;;;;18.70;9.90;;;4.30;99.90;;;;;;5117547;28;20130;-65
2021/12/05 08:28:37;;;;;;;22.35;10.95;;;4.30;99.90;;;;;;5126245;28;20051;-65
2021/12/05 08:31:07;;;;;;;24.70;10.85;;;4.40;99.90;;;;;;5117636;28;20058;-66
2021/12/05 08:34:02;;;;;;;20.38;10.60;;;4.50;99.90;;;;;;5110058;28;20077;-66
2021/12/05 09:25:10;;;;;;;18.55;10.85;;;4.60;99.90;;;;;;5104660;28;20055;-65
2021/12/05 10:07:22;;;;;;;17.70;10.63;;;5.10;99.90;;;;;;5109927;27;20047;-62
2021/12/05 10:09:17;;;;;;;24.67;12.88;;;5.10;99.90;;;;;;5075432;27;20047;-64
2021/12/05 10:11:51;;;;;;;22.30;11.98;;;5.00;99.90;;;;;;5096326;27;20057;-62
2021/12/05 10:14:29;;;;;;;22.42;12.43;;;5.00;99.90;;;;;;5092490;28;20114;-62
2021/12/05 10:33:45;;;;;;;18.98;10.27;;;5.20;99.90;;;;;;4989522;28;20069;-62
2021/12/05 10:36:22;;;;;;;18.15;10.40;;;5.20;99.90;;;;;;4990678;28;20041;-62
2021/12/05 10:38:51;;;;;;;18.65;10.85;;;5.20;99.90;;;;;;5007631;28;20625;-62
2021/12/05 10:41:48;;;;;;;21.30;12.73;;;5.20;99.90;;;;;;4999703;28;20362;-63
2021/12/05 10:44:14;;;;;;;23.85;12.38;;;5.20;99.90;;;;;;4990301;28;20132;-62
2021/12/05 10:46:46;;;;;;;19.85;11.73;;;5.20;99.90;;;;;;4994704;28;20057;-63
2021/12/05 10:49:14;;;;;;;20.38;10.88;;;5.20;99.90;;;;;;4971020;28;20050;-62
2021/12/05 10:51:45;;;;;;;18.42;11.80;;;5.30;99.90;;;;;;5010248;28;20056;-63
2021/12/05 10:54:21;;;;;;;17.15;9.88;;;5.30;99.90;;;;;;4989193;28;20056;-63
2021/12/05 10:56:59;;;;;;;16.33;9.20;;;5.30;99.90;;;;;;5055363;28;20114;-63
2021/12/05 10:59:37;;;;;;;19.45;8.95;;;5.40;99.90;;;;;;5089708;28;20043;-62
2021/12/05 11:02:10;;;;;;;15.80;9.90;;;5.30;99.90;;;;;;5110617;27;20039;-64
2021/12/05 11:04:43;;;;;;;17.15;8.48;;;5.40;99.90;;;;;;5093492;27;20047;-62
2021/12/05 11:07:12;;;;;;;14.75;8.85;;;5.40;99.90;;;;;;5138873;27;20027;-62
2021/12/05 11:09:41;;;;;;;13.90;8.57;;;5.30;99.90;;;;;;5108531;27;20047;-61
2021/12/05 11:12:17;;;;;;;14.88;9.13;;;5.40;99.90;;;;;;5118402;27;20051;-62
2021/12/05 11:14:55;;;;;;;16.05;10.27;;;5.30;99.90;;;;;;5108898;27;20043;-61
2021/12/05 11:17:27;;;;;;;17.58;8.70;;;5.20;99.90;;;;;;5132762;27;20043;-62
2021/12/05 11:20:03;;;;;;;12.57;8.93;;;5.30;99.90;;;;;;5081397;28;20681;-62
2021/12/05 11:22:35;;;;;;;16.20;8.57;;;5.30;99.90;;;;;;5133730;27;20047;-61
2021/12/05 11:25:05;;;;;;;12.95;8.18;;;5.20;99.90;;;;;;5124422;27;20054;-61
2021/12/05 11:27:39;;;;;;;15.68;8.82;;;5.20;99.90;;;;;;5109797;27;20377;-62
2021/12/05 11:30:16;;;;;;;12.27;7.50;;;5.20;99.90;;;;;;5126985;27;20115;-61
2021/12/05 11:32:59;;;;;;;14.32;8.07;;;5.30;99.90;;;;;;5111238;27;20050;-61
2021/12/05 11:35:27;;;;;;;13.85;9.23;;;5.20;99.90;;;;;;5112224;27;20096;-61
2021/12/05 11:38:08;;;;;;;16.33;8.38;;;5.30;99.90;;;;;;5137382;27;20047;-61
2021/12/05 11:40:42;;;;;;;15.32;7.45;;;5.20;99.90;;;;;;5110574;27;20058;-64
2021/12/05 11:43:11;;;;;;;14.50;7.80;;;5.20;99.90;;;;;;5121295;28;20039;-61
2021/12/05 11:46:01;;;;;;;13.90;7.20;;;5.30;99.90;;;;;;5109455;27;20051;-61
2021/12/05 11:48:52;;;;;;;17.33;7.57;;;5.30;99.90;;;;;;5120136;28;20067;-61
2021/12/05 11:51:23;;;;;;;14.77;7.40;;;5.30;99.90;;;;;;5111286;28;20050;-60
2021/12/05 11:53:57;;;;;;;12.23;6.93;;;5.30;99.90;;;;;;5130189;27;20112;-60
2021/12/05 11:56:43;;;;;;;12.73;7.20;;;5.40;99.90;;;;;;5118393;28;20036;-60
2021/12/05 11:59:28;;;;;;;13.50;7.43;;;5.30;99.90;;;;;;5107387;28;20096;-60
2021/12/05 12:02:14;;;;;;;14.90;7.65;;;5.30;99.90;;;;;;5108123;28;20055;-60
2021/12/05 12:04:45;;;;;;;10.77;7.55;;;5.30;99.90;;;;;;5127250;28;20054;-60
2021/12/05 12:07:36;;;;;;;16.95;8.60;;;5.30;99.90;;;;;;5119510;28;20061;-60
2021/12/05 12:10:08;;;;;;;;;;;5.30;99.90;;;;;;5109558;28;20053;-64
2021/12/05 12:12:34;;;;;;;15.35;7.85;;;5.30;99.90;;;;;;5120694;28;19927;-64
2021/12/05 12:15:00;;;;;;;12.23;8.27;;;5.30;99.90;;;;;;5096339;28;20043;-63
2021/12/05 12:17:26;;;;;;;13.43;8.18;;;5.40;99.90;;;;;;5111350;28;20036;-64
2021/12/05 12:19:54;;;;;;;11.85;8.18;;;5.40;99.90;;;;;;5107136;28;20051;-63
2021/12/05 12:22:23;;;;;;;15.93;8.80;;;5.40;99.90;;;;;;5113600;28;20043;-63
2021/12/05 12:24:55;;;;;;;17.58;8.93;;;5.40;99.90;;;;;;5104905;28;20701;-63
2021/12/05 12:27:22;;;;;;;13.45;8.85;;;5.50;99.90;;;;;;5117510;27;20092;-63
2021/12/05 12:29:49;;;;;;;12.98;8.93;;;5.50;99.90;;;;;;5107661;27;20575;-63
2021/12/05 12:32:32;;;;;;;15.32;9.20;;;5.50;99.90;;;;;;5126256;27;20039;-63
2021/12/05 12:35:08;;;;;;;18.25;8.90;;;5.60;99.90;;;;;;5099984;28;20113;-63
2021/12/05 12:37:55;;;;;;;11.48;8.10;;;5.60;99.90;;;;;;5096761;28;20048;-63
2021/12/05 12:40:52;;;;;;;15.40;7.93;;;5.70;99.90;;;;;;5077668;27;20085;-63
2021/12/05 12:43:36;;;;;;;11.40;8.70;;;5.70;99.90;;;;;;5122004;27;20385;-63
2021/12/05 12:46:29;;;;;;;12.95;8.10;;;5.70;99.90;;;;;;5112316;27;20096;-63
2021/12/05 12:48:58;;;;;;;15.15;8.18;;;5.70;99.90;;;;;;5105695;27;20138;-64
2021/12/05 12:51:39;;;;;;;12.73;8.18;;;5.70;99.90;;;;;;5141535;27;20062;-63
2021/12/05 12:54:17;;;;;;;13.75;8.23;;;5.70;99.90;;;;;;5114558;27;20294;-63
2021/12/05 12:57:05;;;;;;;16.35;8.80;;;5.70;99.90;;;;;;5124295;27;20108;-64
2021/12/05 12:59:35;;;;;;;16.73;8.25;;;5.70;99.90;;;;;;5132523;27;20047;-63
2021/12/05 13:10:37;;;;;;;15.48;8.40;;;5.80;99.90;;;;;;5131549;27;20147;-64
2021/12/05 13:13:25;;;;;;;;;;;5.80;99.90;;;;;;5122363;27;20096;-63
2021/12/05 13:15:56;;;;;;;11.00;7.30;;;5.80;99.90;;;;;;5112454;27;19919;-63
2021/12/05 13:18:30;;;;;;;14.20;7.20;;;5.90;99.90;;;;;;5110518;27;20055;-63
2021/12/05 13:21:04;;;;;;;11.35;7.20;;;5.90;99.90;;;;;;5128771;27;20047;-63
2021/12/05 13:23:39;;;;;;;13.32;8.30;;;5.90;99.90;;;;;;5141862;27;20080;-62
2021/12/05 13:26:04;;;;;;;14.85;8.43;;;5.90;99.90;;;;;;5130081;27;20147;-61
2021/12/05 13:28:52;;;;;;;16.52;8.38;;;6.00;99.90;;;;;;5121777;27;20043;-61
2021/12/05 13:31:27;;;;;;;12.05;8.40;;;5.90;99.90;;;;;;5112454;27;20077;-61
2021/12/05 13:34:14;;;;;;;11.40;7.75;;;5.90;99.90;;;;;;5143018;27;20415;-61
2021/12/05 13:36:42;;;;;;;11.32;6.85;;;5.90;99.90;;;;;;5095710;27;20044;-62
2021/12/05 13:39:29;;;;;;;13.38;7.57;;;6.00;99.90;;;;;;5130441;27;20039;-61
2021/12/05 13:42:13;;;;;;;12.00;7.00;;;6.00;99.90;;;;;;5119690;28;20055;-61
2021/12/05 13:45:00;;;;;;;12.30;7.00;;;6.00;99.90;;;;;;5107447;27;20039;-61
2021/12/05 13:47:31;;;;;;;11.45;6.55;;;6.00;99.90;;;;;;5118624;27;20062;-63
2021/12/05 13:50:18;;;;;;;12.63;7.05;;;6.00;99.90;;;;;;5109726;27;20054;-62
2021/12/05 13:52:49;;;;;;;10.18;7.75;;;6.00;99.90;;;;;;5121695;27;20047;-62
2021/12/05 13:55:36;;;;;;;9.02;6.90;;;6.00;99.90;;;;;;5128640;27;20132;-61
2021/12/05 13:58:22;;;;;;;10.23;7.13;;;6.00;99.90;;;;;;5113792;27;20519;-62
2021/12/05 14:01:15;;;;;;;8.82;6.75;;;5.90;99.90;;;;;;5110802;27;20255;-62
2021/12/05 14:03:59;;;;;;;10.13;6.88;;;6.00;99.90;;;;;;5140552;27;20390;-62
2021/12/05 14:06:39;;;;;;;10.95;7.15;;;5.90;99.90;;;;;;5099340;27;20048;-63
2021/12/05 14:09:09;;;;;;;11.88;7.20;;;5.90;99.90;;;;;;5120083;27;20066;-64
2021/12/05 14:11:45;;;;;;;13.23;7.45;;;5.90;99.90;;;;;;5122199;27;20072;-64
2021/12/05 14:14:12;;;;;;;9.30;7.30;;;5.90;99.90;;;;;;5130197;27;20039;-65
2021/12/05 14:16:41;;;;;;;12.38;7.25;;;5.90;99.90;;;;;;5119020;27;20958;-64
2021/12/05 14:19:13;;;;;;;12.00;7.65;;;5.80;99.90;;;;;;5107490;27;20056;-64
2021/12/05 14:21:48;;;;;;;12.65;7.22;;;5.80;99.90;;;;;;5083007;28;20079;-63
2021/12/05 14:24:14;;;;;;;13.00;7.80;;;5.80;99.90;;;;;;5127270;27;20046;-65
2021/12/05 14:26:41;;;;;;;11.07;7.47;;;5.70;99.90;;;;;;5123160;27;20066;-63
2021/12/05 14:29:13;;;;;;;13.43;7.32;;;5.70;99.90;;;;;;5118230;27;20518;-62
2021/12/05 14:31:54;;;;;;;10.90;8.15;;;5.70;99.90;;;;;;5077682;27;20063;-63
2021/12/05 14:34:21;;;;;;;11.48;7.80;;;5.60;99.90;;;;;;5095025;27;20073;-63
2021/12/05 14:37:00;;;;;;;15.23;8.18;;;5.60;99.90;;;;;;5110842;27;20039;-63
2021/12/05 14:39:35;;;;;;;12.30;8.45;;;5.50;99.90;;;;;;5110087;27;20060;-62
2021/12/05 14:42:17;;;;;;;16.40;10.30;;;5.50;99.90;;;;;;5122190;27;20151;-63
2021/12/05 14:44:46;;;;;;;14.23;9.63;;;5.50;99.90;;;;;;5101194;27;20055;-62
2021/12/05 14:47:18;;;;;;;16.20;10.43;;;5.50;99.90;;;;;;5137618;27;20130;-62
2021/12/05 14:49:49;;;;;;;16.15;11.65;;;5.50;99.90;;;;;;5111698;27;20078;-63
2021/12/05 14:52:19;;;;;;;18.35;12.40;;;5.50;99.90;;;;;;5119687;27;20051;-63
2021/12/05 14:54:45;;;;;;;22.92;12.23;;;5.50;99.90;;;;;;5123486;27;20108;-63
2021/12/05 14:57:15;;;;;;;21.52;12.43;;;5.50;99.90;;;;;;5136950;27;20035;-63
2021/12/05 14:59:44;;;;;;;17.92;12.38;;;5.40;99.90;;;;;;5104850;28;20054;-63
2021/12/05 15:02:11;;;;;;;16.88;11.65;;;5.40;99.90;;;;;;5088761;27;20043;-63
2021/12/05 15:04:41;;;;;;;19.52;11.52;;;5.50;99.90;;;;;;5103847;27;20056;-61
2021/12/05 15:07:07;;;;;;;14.57;10.38;;;5.40;99.90;;;;;;5109045;27;20039;-61
2021/12/05 15:09:37;;;;;;;21.13;11.32;;;5.40;99.90;;;;;;5114265;27;20076;-61
2021/12/05 15:12:16;;;;;;;15.98;11.43;;;5.40;99.90;;;;;;5122175;27;20059;-62
2021/12/05 15:14:44;;;;;;;14.48;10.07;;;5.40;99.90;;;;;;5121293;27;20122;-62
2021/12/05 15:17:17;;;;;;;16.35;11.10;;;5.30;99.90;;;;;;5130563;27;20047;-62
2021/12/05 15:19:51;;;;;;;21.33;12.80;;;5.40;99.90;;;;;;5117657;27;20055;-62
2021/12/05 15:22:18;;;;;;;18.38;11.10;;;5.40;99.90;;;;;;5119797;27;20043;-61
2021/12/05 15:24:57;;;;;;;18.58;11.02;;;5.40;99.90;;;;;;5125292;27;20054;-61
2021/12/05 15:27:30;;;;;;;16.67;11.05;;;5.40;99.90;;;;;;5127036;27;20034;-61
2021/12/05 15:30:20;;;;;;;15.90;11.10;;;5.40;99.90;;;;;;5102314;28;20047;-61
2021/12/05 15:32:50;;;;;;;15.23;10.18;;;5.30;99.90;;;;;;5110923;28;20061;-62
2021/12/05 15:35:17;;;;;;;15.85;10.50;;;5.30;99.90;;;;;;5116850;27;20043;-61
2021/12/05 15:37:56;;;;;;;13.82;10.80;;;5.30;99.90;;;;;;5122899;27;20073;-62
2021/12/05 15:40:24;;;;;;;16.98;10.77;;;5.30;99.90;;;;;;5120054;27;20051;-61
2021/12/05 15:42:50;;;;;;;17.90;10.73;;;5.30;99.90;;;;;;5118696;28;20082;-61
2021/12/05 15:45:18;;;;;;;18.42;12.90;;;5.30;99.90;;;;;;5125379;27;20081;-61
2021/12/05 15:47:46;;;;;;;16.25;11.98;;;5.20;99.90;;;;;;5114115;27;20051;-61
2021/12/05 15:50:25;;;;;;;16.80;11.63;;;5.30;99.90;;;;;;5129836;27;20363;-61
2021/12/05 15:52:55;;;;;;;15.73;11.55;;;5.30;99.90;;;;;;5121644;28;20047;-61
2021/12/05 15:55:42;;;;;;;15.50;10.93;;;5.20;99.90;;;;;;5128792;27;20058;-61
2021/12/05 15:58:20;;;;;;;19.42;11.73;;;5.20;99.90;;;;;;5118638;28;20039;-62
2021/12/05 16:00:58;;;;;;;19.10;11.00;;;5.20;99.90;;;;;;5101161;28;20638;-62
2021/12/05 16:03:27;;;;;;;17.83;10.48;;;5.10;99.90;;;;;;5130967;27;20111;-61
2021/12/05 16:05:58;;;;;;;19.13;11.55;;;5.10;99.90;;;;;;5093975;28;20048;-62
2021/12/05 16:08:28;;;;;;;17.58;12.02;;;5.10;99.90;;;;;;5108065;28;20052;-62
2021/12/05 16:11:00;;;;;;;17.42;11.35;;;5.10;99.90;;;;;;5098219;28;20116;-61
2021/12/05 16:13:26;;;;;;;14.93;11.30;;;5.10;99.90;;;;;;5108379;28;20048;-61
2021/12/05 16:15:54;;;;;;;18.60;11.95;;;5.10;99.90;;;;;;5125351;28;20063;-62
2021/12/05 16:18:31;;;;;;;18.83;11.77;;;5.00;99.90;;;;;;5115507;28;20453;-61
2021/12/05 16:21:02;;;;;;;21.42;12.40;;;5.00;99.90;;;;;;5120884;27;20055;-61
2021/12/05 16:23:34;;;;;;;19.35;13.27;;;5.00;99.90;;;;;;5130121;28;20055;-63
2021/12/05 16:26:09;;;;;;;21.10;15.43;;;5.10;99.90;;;;;;5105213;28;20081;-61
2021/12/05 16:28:40;;;;;;;19.77;13.52;;;5.10;99.90;;;;;;5132773;27;20043;-61
2021/12/05 16:31:15;;;;;;;20.42;13.13;;;5.10;99.90;;;;;;5121854;28;20054;-61
2021/12/05 16:33:46;;;;;;;19.98;13.20;;;5.20;99.90;;;;;;5131634;28;20099;-61
2021/12/05 16:36:12;;;;;;;19.83;12.88;;;5.20;99.90;;;;;;5104637;28;20105;-62
2021/12/05 16:38:41;;;;;;;19.13;12.57;;;5.20;99.90;;;;;;5113625;28;20047;-61
2021/12/05 16:41:14;;;;;;;20.90;13.63;;;5.20;99.90;;;;;;5104584;27;20039;-61
2021/12/05 16:44:12;;;;;;;22.17;13.57;;;5.20;99.90;;;;;;5129845;28;20145;-61
2021/12/05 16:46:45;;;;;;;21.60;15.00;;;5.30;99.90;;;;;;5093278;28;20290;-61
2021/12/05 16:49:13;;;;;;;19.80;14.27;;;5.30;99.90;;;;;;5113899;28;20075;-61
2021/12/05 16:51:50;;;;;;;19.52;13.55;;;5.30;99.90;;;;;;5106630;28;20052;-63
2021/12/05 16:54:22;;;;;;;21.00;13.95;;;5.40;99.90;;;;;;5114508;28;20035;-61
2021/12/05 16:56:54;;;;;;;22.70;13.50;;;5.30;99.90;;;;;;5126482;28;20587;-62
2021/12/05 16:59:28;;;;;;;21.90;14.00;;;5.20;99.90;;;;;;5116017;28;20099;-61
2021/12/05 17:02:32;;;;;;;22.13;14.35;;;5.20;99.90;;;;;;5110944;28;20421;-63
2021/12/05 17:05:22;;;;;;;21.27;15.18;;;5.10;99.90;;;;;;5108983;28;20515;-61
2021/12/05 17:08:16;;;;;;;23.23;15.60;;;5.10;99.90;;;;;;5114929;28;20363;-61
2021/12/05 17:10:56;;;;;;;25.35;16.05;;;5.20;99.90;;;;;;5099095;27;20196;-62
2021/12/05 17:13:27;;;;;;;27.58;16.30;;;5.10;99.90;;;;;;5136899;27;20043;-61
2021/12/05 17:16:12;;;;;;;28.13;16.33;;;5.10;99.90;;;;;;5131516;27;20051;-61
2021/12/05 17:18:58;;;;;;;26.10;16.45;;;5.10;99.90;;;;;;5114428;27;20058;-61
2021/12/05 17:21:47;;;;;;;28.35;18.17;;;5.00;99.90;;;;;;5133377;27;20150;-61
2021/12/05 17:24:23;;;;;;;27.05;17.35;;;5.00;99.90;;;;;;5134413;27;20350;-61
2021/12/05 17:26:57;;;;;;;32.58;17.98;;;5.00;99.90;;;;;;5131053;27;20050;-62
2021/12/05 17:29:36;;;;;;;26.75;17.83;;;5.10;99.90;;;;;;5141512;27;20576;-64
2021/12/05 17:32:04;;;;;;;30.05;19.30;;;5.10;99.90;;;;;;5113724;27;20051;-64
2021/12/05 17:34:34;;;;;;;33.63;18.83;;;5.20;99.90;;;;;;5123413;27;20123;-63
2021/12/05 17:37:06;;;;;;;30.67;19.45;;;5.20;99.90;;;;;;5128623;27;20451;-64
2021/12/05 17:39:36;;;;;;;31.85;19.10;;;5.10;99.90;;;;;;5121772;27;20043;-64
2021/12/05 17:42:15;;;;;;;33.28;20.17;;;5.10;99.90;;;;;;5126901;27;20058;-64
2021/12/05 17:44:42;;;;;;;32.03;21.40;;;5.20;99.90;;;;;;5121857;27;20066;-64
2021/12/05 17:47:10;;;;;;;35.28;22.88;;;5.20;99.90;;;;;;5128435;27;20122;-63
2021/12/05 17:49:39;;;;;;;32.88;22.38;;;5.10;99.90;;;;;;5116828;27;20566;-63
2021/12/05 17:52:07;;;;;;;36.55;22.63;;;5.10;99.90;;;;;;5098653;27;20146;-64
2021/12/05 17:54:49;;;;;;;45.97;26.75;;;5.10;99.90;;;;;;5115125;27;20058;-64
2021/12/05 17:57:20;;;;;;;48.97;30.52;;;5.10;99.90;;;;;;5112321;27;20138;-63
2021/12/05 18:05:39;;;;;;;36.30;21.95;;;5.00;99.90;;;;;;5010197;28;20041;-65
2021/12/05 18:08:10;;;;;;;32.80;20.67;;;5.00;99.90;;;;;;5019370;28;20064;-65
2021/12/05 18:10:38;;;;;;;34.25;21.67;;;5.00;99.90;;;;;;5027093;28;20176;-64
2021/12/05 18:13:09;;;;;;;33.80;21.05;;;5.00;99.90;;;;;;5037251;28;20054;-64
2021/12/05 18:15:37;;;;;;;32.35;20.73;;;5.00;99.90;;;;;;5027797;28;20053;-64
2021/12/05 18:18:06;;;;;;;35.17;20.60;;;5.00;99.90;;;;;;5037305;28;20041;-65
2021/12/05 18:20:35;;;;;;;33.22;20.58;;;4.90;99.90;;;;;;5004242;28;20069;-64
2021/12/05 18:23:04;;;;;;;31.10;21.15;;;4.90;99.90;;;;;;5019914;28;20055;-64
2021/12/05 18:25:31;;;;;;;32.00;20.93;;;4.90;99.90;;;;;;5010435;28;20049;-65
2021/12/05 18:27:58;;;;;;;33.05;20.75;;;4.90;99.90;;;;;;5032376;28;20788;-64
2021/12/05 18:30:26;;;;;;;32.42;20.58;;;4.80;99.90;;;;;;5007777;28;20128;-64
2021/12/05 18:32:57;;;;;;;30.45;19.73;;;4.90;99.90;;;;;;5016633;28;20046;-64
2021/12/05 18:35:25;;;;;;;34.40;20.70;;;4.90;99.90;;;;;;5015437;28;20063;-63